• Join FlightAware (Why Join?)
  • Login
  • US Flag 
10:56AM EDT


 

Airport Tracker/Info


-or-


 

Live Flight TrackerFlight Track Log ✈ ASH3751 ✈ 16-Jun-2013 ✈ KIAD - KSAT

Flight Track Log - Related Links

Times and Time Zones

All times are in EDT time to prevent confusion due to time zone crossing. See the ASH3751 flight status page for this flight to view local times or setup timezone preferences in your user account.

Time Position Orientation Groundspeed Altitude Reporting Facility
EDT Latitude Longitude Course Direction KTS MPH feet Rate Location/Type
08:44AM 38.9000 -77.4500 270° West 198 228 1,900  Level Potomac TRACON
08:45AM 38.8500 -77.5000 218° Southwest 241 277 3,800 1,800 Climbing Potomac TRACON
08:46AM 38.8333 -77.6000 258° West 259 298 5,600 2,100 Climbing Potomac TRACON
08:47AM 38.7966 -77.9737 287° West  Level FlightAware Approximate
08:47AM 38.8167 -77.6833 256° West 253 291 8,000  Level Potomac TRACON
08:48AM 38.8307 -78.1218 287° West  Level FlightAware Approximate
08:48AM 38.8000 -77.7667 256° West 258 297 10,200  Level Potomac TRACON
08:49AM 38.8500 -78.2725 270° West  Level FlightAware Approximate
08:49AM 38.7875 -77.8767 262° West 300 345 11,500  Level Washington Center
08:50AM 38.8019 -77.9892 279° West 314 361 13,300 1,920 Climbing Washington Center
08:51AM 38.8289 -78.0992 287° West 319 367 15,400 1,860 Climbing Washington Center
08:52AM 38.8514 -78.2144 284° West 324 373 17,100 1,620 Climbing Washington Center
08:53AM 38.8531 -78.3347 271° West 329 379 18,700 1,620 Climbing Washington Center
08:54AM 38.8522 -78.4519 270° West 334 384 20,400 1,500 Climbing Washington Center
08:55AM 38.8514 -78.5744 270° West 334 384 21,700 1,320 Climbing Washington Center
08:56AM 38.8483 -78.6969 268° West 341 392 23,100 1,200 Climbing Washington Center
08:57AM 38.8472 -78.8222 269° West 346 398 24,200 960 Climbing Washington Center
08:58AM 38.8456 -78.9528 269° West 356 410 25,100 840 Climbing Washington Center
08:59AM 38.8439 -79.0833 269° West 362 417 26,000 840 Climbing Washington Center
09:00AM 38.8378 -79.2189 267° West 375 432 26,900 840 Climbing Washington Center
09:01AM 38.8150 -79.3536 258° West 386 444 27,700 840 Climbing Washington Center
09:02AM 38.7897 -79.4883 257° West 386 444 28,600 900 Climbing Washington Center
09:03AM 38.7619 -79.6411 257° West 403 464 29,600 900 Climbing Washington Center
09:04AM 38.7383 -79.7811 258° West 408 470 30,500 660 Climbing Washington Center
09:05AM 38.7075 -79.9256 255° West 401 461 31,000 240 Climbing Indianapolis Center
09:06AM 38.6811 -80.0700 257° West 412 474 31,000  Level Indianapolis Center
09:07AM 38.6536 -80.2153 256° West 417 480 31,100 480 Climbing Indianapolis Center
09:08AM 38.6261 -80.3583 256° West 417 480 32,000 420 Climbing Indianapolis Center
09:09AM 38.5989 -80.5008 256° West 412 474 32,000  Level Indianapolis Center
09:10AM 38.5722 -80.6461 257° West 418 481 32,000  Level Indianapolis Center
09:11AM 38.5439 -80.7903 256° West 419 482 32,000  Level Indianapolis Center
09:12AM 38.5167 -80.9356 257° West 419 482 32,000  Level Indianapolis Center
09:13AM 38.4875 -81.0806 256° West 421 484 32,000 360 Level Indianapolis Center
09:14AM 38.4581 -81.2258 256° West 419 482 32,800 960 Climbing Indianapolis Center
09:15AM 38.4247 -81.3961 256° West 409 471 34,000 540 Climbing Indianapolis Center
09:16AM 38.3967 -81.5364 256° West 404 465 34,000  Level Indianapolis Center
09:17AM 38.3681 -81.6794 256° West 411 473 34,000  Level Indianapolis Center
09:18AM 38.3356 -81.8214 254° West 414 476 34,000  Level Indianapolis Center
09:19AM 38.2967 -81.9606 250° West 415 478 34,000  Level Indianapolis Center
09:20AM 38.2569 -82.1011 250° West 421 484 34,000  Level Indianapolis Center
09:22AM 38.2167 -82.2417 250° West 420 483 34,000  Level Indianapolis Center
09:23AM 38.1767 -82.3831 250° West 424 488 34,000  Level Indianapolis Center
09:24AM 38.1333 -82.5333 250° West 424 488 34,000  Level Indianapolis Center
09:25AM 38.0933 -82.6744 250° West 425 489 34,000  Level Indianapolis Center
09:26AM 38.0528 -82.8158 250° West 426 490 34,000  Level Indianapolis Center
09:27AM 38.0056 -82.9792 250° West 424 488 34,000  Level Indianapolis Center
09:28AM 37.9642 -83.1200 250° West 426 490 34,000  Level Indianapolis Center
09:29AM 37.9231 -83.2603 250° West 426 490 34,000  Level Indianapolis Center
09:30AM 37.8817 -83.3992 249° West 423 487 34,000  Level Indianapolis Center
09:31AM 37.8411 -83.5367 250° West 419 482 34,000  Level Indianapolis Center
09:32AM 37.8006 -83.6733 249° West 417 480 34,000  Level Indianapolis Center
09:33AM 37.7592 -83.8111 249° West 419 482 34,000  Level Indianapolis Center
09:34AM 37.7111 -83.9694 249° West 414 476 34,000  Level Indianapolis Center
09:35AM 37.6694 -84.1056 249° West 415 478 34,000  Level Indianapolis Center
09:36AM 37.6289 -84.2417 249° West 414 476 34,000  Level Indianapolis Center
09:37AM 37.5861 -84.3781 248° West 416 479 34,000  Level Indianapolis Center
09:38AM 37.5450 -84.5161 249° West 418 481 34,000  Level Indianapolis Center
09:39AM 37.5014 -84.6525 248° West 421 484 34,000 240 Level Indianapolis Center
09:40AM 37.4517 -84.8122 249° West 421 484 34,600 480 Climbing Indianapolis Center
09:41AM 37.4081 -84.9503 248° West 422 486 35,100 480 Climbing Indianapolis Center
09:42AM 37.3672 -85.0856 249° West 415 478 35,700 420 Climbing Indianapolis Center
09:43AM 37.3244 -85.2206 248° West 415 478 36,000 120 Climbing Indianapolis Center
09:44AM 37.2808 -85.3556 248° West 417 480 36,000  Level Indianapolis Center
09:45AM 37.2375 -85.4919 248° West 419 482 36,000  Level Indianapolis Center
09:46AM 37.1878 -85.6481 248° West 421 484 36,000  Level Indianapolis Center
09:47AM 37.1436 -85.7853 248° West 421 484 36,000  Level Indianapolis Center
09:48AM 37.0989 -85.9217 248° West 421 484 36,000  Level Indianapolis Center
09:49AM 37.0544 -86.0594 248° West 423 487 36,000  Level Indianapolis Center
09:50AM 37.0100 -86.1964 248° West 423 487 36,000  Level Indianapolis Center
09:51AM 36.9653 -86.3314 248° West 420 483 36,000  Level Indianapolis Center
09:52AM 36.9514 -86.3772 249° West 421 484 36,000  Level Memphis Center
09:53AM 36.8911 -86.5203 242° Southwest 421 484 36,000  Level Memphis Center
09:54AM 36.8264 -86.6453 237° Southwest 428 493 36,000  Level Memphis Center
09:55AM 36.7633 -86.7700 238° Southwest 441 507 36,000  Level Memphis Center
09:56AM 36.6981 -86.8969 237° Southwest 441 507 36,000  Level Memphis Center
09:57AM 36.6328 -87.0214 237° Southwest 441 507 36,000  Level Memphis Center
09:58AM 36.5672 -87.1508 238° Southwest 447 514 36,000  Level Memphis Center
09:59AM 36.4997 -87.2747 236° Southwest 442 509 36,000  Level Memphis Center
10:00AM 36.4339 -87.3983 237° Southwest 442 509 36,000  Level Memphis Center
10:01AM 36.3681 -87.5244 237° Southwest 442 509 36,000  Level Memphis Center
10:02AM 36.3019 -87.6453 236° Southwest 442 509 36,000  Level Memphis Center
10:03AM 36.2400 -87.7658 238° Southwest 436 502 36,000  Level Memphis Center
10:04AM 36.1736 -87.8886 236° Southwest 436 502 36,000  Level Memphis Center
10:05AM 36.1072 -88.0089 236° Southwest 430 495 36,000  Level Memphis Center
10:06AM 36.0447 -88.1286 237° Southwest 425 489 36,000  Level Memphis Center
10:07AM 35.9861 -88.2303 235° Southwest 420 483 36,000  Level Memphis Center
10:08AM 35.9192 -88.3475 235° Southwest 420 483 36,000  Level Memphis Center
10:09AM 35.8564 -88.4694 238° Southwest 425 489 36,000  Level Memphis Center
10:10AM 35.7914 -88.5886 236° Southwest 425 489 36,000  Level Memphis Center
10:11AM 35.7222 -88.7078 234° Southwest 425 489 36,000  Level Memphis Center
10:12AM 35.6550 -88.8394 238° Southwest 425 489 36,000  Level Memphis Center
10:13AM 35.5897 -88.9581 236° Southwest 419 482 36,000  Level Memphis Center
10:14AM 35.5222 -89.0789 236° Southwest 424 488 36,000  Level Memphis Center
10:15AM 35.4567 -89.1972 236° Southwest 424 488 36,000  Level Memphis Center
10:16AM 35.3908 -89.3178 236° Southwest 424 488 36,000  Level Memphis Center
10:17AM 35.3253 -89.4383 236° Southwest 424 488 36,000  Level Memphis Center
10:18AM 35.2572 -89.5561 235° Southwest 424 488 36,000  Level Memphis Center
10:19AM 35.1994 -89.6658 237° Southwest 424 488 36,000  Level Memphis Center
10:20AM 35.1311 -89.7883 236° Southwest 429 494 36,000  Level Memphis Center
10:21AM 35.0650 -89.9131 237° Southwest 435 501 36,000  Level Memphis Center
10:22AM 34.9922 -90.0325 233° Southwest 446 513 36,000  Level Memphis Center
10:23AM 34.9175 -90.1494 232° Southwest 451 519 36,000  Level Memphis Center
10:24AM 34.8444 -90.2686 233° Southwest 451 519 36,000  Level Memphis Center
10:25AM 34.7694 -90.3875 232° Southwest 451 519 36,000  Level Memphis Center
10:26AM 34.6944 -90.5036 232° Southwest 443 510 36,000  Level Memphis Center
10:27AM 34.6231 -90.6197 233° Southwest 443 510 36,000  Level Memphis Center
10:28AM 34.5478 -90.7378 232° Southwest 443 510 36,000  Level Memphis Center
10:29AM 34.4764 -90.8561 234° Southwest 443 510 36,000  Level Memphis Center
10:30AM 34.3986 -90.9739 231° Southwest 443 510 36,000  Level Memphis Center
10:31AM 34.3186 -91.1042 233° Southwest 438 504 36,000  Level Memphis Center
10:32AM 34.2408 -91.2239 232° Southwest 449 517 36,000  Level Memphis Center
10:33AM 34.1669 -91.3386 232° Southwest 449 517 36,000  Level Memphis Center
10:34AM 34.0928 -91.4583 233° Southwest 454 522 36,000  Level Memphis Center
10:35AM 34.0144 -91.5750 231° Southwest 454 522 36,000  Level Memphis Center
10:36AM 33.9422 -91.6942 234° Southwest 449 517 36,000  Level Memphis Center
10:37AM 33.8681 -91.8081 232° Southwest 449 517 36,000  Level Memphis Center
10:39AM 33.7144 -92.0500 233° Southwest 460 529 36,000  Level Fort Worth Center
10:40AM 33.6400 -92.1644 232° Southwest 450 518 36,000  Level Fort Worth Center
10:41AM 33.5614 -92.2811 231° Southwest 450 518 36,000  Level Fort Worth Center
10:42AM 33.4867 -92.3975 232° Southwest 450 518 36,000  Level Fort Worth Center
10:43AM 33.4100 -92.5164 232° Southwest 450 518 36,000  Level Fort Worth Center
10:44AM 33.3331 -92.6325 232° Southwest 450 518 36,000  Level Fort Worth Center
10:45AM 33.2539 -92.7436 230° Southwest 450 518 36,000  Level Fort Worth Center
10:46AM 33.1594 -92.8428 221° Southwest 445 512 36,000  Level Fort Worth Center
10:47AM 33.0650 -92.9419 221° Southwest 445 512 36,000  Level Fort Worth Center
10:48AM 32.9700 -93.0358 220° Southwest 452 520 36,000  Level Fort Worth Center
10:49AM 32.8756 -93.1344 221° Southwest 452 520 36,000  Level Fort Worth Center
10:50AM 32.7806 -93.2303 220° Southwest 458 527 36,000  Level Fort Worth Center
10:51AM 32.6836 -93.3286 220° Southwest 458 527 36,000  Level Fort Worth Center
10:52AM 32.5867 -93.4267 220° Southwest 463 533 36,000  Level Fort Worth Center
10:53AM 32.4914 -93.5219 220° Southwest 463 533 36,000  Level Fort Worth Center
10:54AM 32.3944 -93.6222 221° Southwest 463 533 36,000  Level Fort Worth Center
10:55AM 32.2989 -93.7169 220° Southwest 469 540 36,000  Level Fort Worth Center
10:56AM 32.2117 -93.8017 219° Southwest 469 540 36,000  Level Fort Worth Center
10:57AM 32.1106 -93.9136 223° Southwest 457 526 36,000  Level Fort Worth Center
10:58AM 32.0153 -94.0153 222° Southwest 457 526 36,000  Level Fort Worth Center
10:59AM 31.9194 -94.1092 220° Southwest 457 526 36,000  Level Fort Worth Center
11:00AM 31.7847 -94.2414 220° Southwest 458 527 36,000  Level Houston Center
11:01AM 31.6886 -94.3378 220° Southwest 456 525 36,000  Level Houston Center
11:02AM 31.5911 -94.4339 220° Southwest 456 525 36,000  Level Houston Center
11:03AM 31.4936 -94.5297 220° Southwest 457 526 36,000  Level Houston Center
11:04AM 31.3964 -94.6253 220° Southwest 456 525 36,000  Level Houston Center
11:05AM 31.3014 -94.7186 220° Southwest 457 526 36,000  Level Houston Center
11:06AM 31.2019 -94.8153 220° Southwest 467 537 36,000  Level Houston Center
11:07AM 31.0911 -94.9244 220° Southwest 456 525 36,000  Level Houston Center
11:08AM 30.9944 -95.0194 220° Southwest 453 521 36,000  Level Houston Center
11:09AM 30.8969 -95.1136 220° Southwest 455 524 36,000  Level Houston Center
11:10AM 30.7994 -95.2083 220° Southwest 457 526 36,000  Level Houston Center
11:11AM 30.6822 -95.3219 220° Southwest 457 526 36,000  Level Houston Center
11:12AM 30.5847 -95.4167 220° Southwest 456 525 36,000  Level Houston Center
11:13AM 30.4925 -95.5028 219° Southwest 456 525 36,000  Level Houston Center
11:14AM 30.3947 -95.5986 220° Southwest 460 529 36,000  Level Houston Center
11:16AM 30.2964 -95.6936 220° Southwest 462 532 36,000  Level Houston Center
11:17AM 30.1783 -95.8053 219° Southwest 460 529 36,000  Level Houston Center
11:18AM 30.0792 -95.8989 219° Southwest 462 532 36,000  Level Houston Center
11:19AM 29.9803 -95.9925 219° Southwest 463 533 36,000  Level Houston Center
11:20AM 29.8783 -96.0892 219° Southwest 463 533 36,000  Level Houston Center
11:21AM 29.8092 -96.2108 237° Southwest 465 535 36,000  Level Houston Center
11:22AM 29.7925 -96.3497 262° West 449 517 36,000  Level Houston Center
11:23AM 29.8025 -96.4908 275° West 447 514 36,000 -360 Level Houston Center
11:24AM 29.8192 -96.6597 277° West 449 517 35,300 -1,320 Descending Houston Center
11:25AM 29.8864 -96.7828 302° West 462 532 33,300 -1,980 Descending Houston Center
11:26AM 29.9636 -96.8967 308° West 454 522 31,300 -1,980 Descending Houston Center
11:27AM 30.0706 -96.9703 329° Northwest 448 516 29,300 -2,160 Descending Houston Center
11:28AM 30.1861 -97.0508 329° Northwest 438 504 26,900 -2,400 Descending Houston Center
11:29AM 30.2714 -97.1417 317° Northwest 422 486 24,400 -1,440 Descending Houston Center
11:30AM 30.2753 -97.2803 272° West 424 488 24,000 -240 Descending Houston Center
11:31AM 30.2767 -97.4150 271° West 417 480 24,000 -360 Level Houston Center
11:32AM 30.2167 -97.5211 237° Southwest 402 463 23,300 -1,620 Descending Houston Center
11:33AM 30.1331 -97.6128 223° Southwest 405 466 20,700 -2,880 Descending Houston Center
11:34AM 30.0453 -97.7058 223° Southwest 372 428 17,400 -3,000 Descending Houston Center
11:35AM 29.9806 -97.7742 222° Southwest 331 381 14,900 -2,280 Descending Houston Center
11:36AM 29.9139 -97.8428 222° Southwest 320 368 13,000 -1,080 Descending Houston Center
11:37AM 29.8644 -97.9431 240° Southwest 345 397 12,800 -660 Descending Houston Center
11:38AM 29.8250 -98.0347 244° Southwest 317 365 11,700 -1,260 Descending Houston Center
11:39AM 29.7922 -98.1111 244° Southwest 286 329 10,400 -1,620 Descending Houston Center
11:39AM 29.7808 -98.1375 244° Southwest 294 338 9,800 -1,920 Descending Houston Center
11:40AM 29.7561 -98.1950 244° Southwest 288 331 8,500 -1,800 Descending Houston Center
11:40AM 29.7453 -98.2208 244° Southwest 293 337 8,000 -1,440 Descending Houston Center
11:41AM 29.7183 -98.2864 245° Southwest 293 337 6,900 -1,140 Descending Houston Center
11:42AM 29.6856 -98.3625 244° Southwest 273 314 6,000 -720 Descending Houston Center
11:42AM 29.6756 -98.3858 244° Southwest 267 307 6,000 -360 Level Houston Center
11:43AM 29.6561 -98.4311 244° Southwest 257 296 5,700 -780 Descending Houston Center
11:43AM 29.6517 -98.4606 260° West 256 295 5,200 -1,440 Descending Houston Center
11:44AM 29.6781 -98.5100 302° West 263 303 4,300 -1,260 Descending Houston Center
11:44AM 29.6944 -98.5339 308° West 261 300 3,900 -1,020 Descending Houston Center
11:45AM 29.7197 -98.5750 305° West 250 288 3,300 -900 Descending Houston Center
11:45AM 29.7169 -98.6028 263° West 232 267 3,000 -300 Descending Houston Center
11:46AM 29.6919 -98.6142 202° Southwest 177 204 3,000  Level Houston Center
11:47AM 29.6694 -98.6156 183° South 183 211 3,000  Level Houston Center
11:47AM 29.6378 -98.5967 153° Southeast 181 208 3,000  Level Houston Center
11:48AM 29.6256 -98.5853 141° Southeast 182 209 3,000  Level Houston Center